sensor_id;sensor_type;location;lat;lon;timestamp;P1;durP1;ratioP1;P2;durP2;ratioP2
10920;SDS011;5513;50.580;8.818;2023-04-29T00:00:04;3.63;;;3.30;;
10920;SDS011;5513;50.580;8.818;2023-04-29T00:02:35;7.70;;;3.57;;
10920;SDS011;5513;50.580;8.818;2023-04-29T00:05:04;3.87;;;3.33;;
10920;SDS011;5513;50.580;8.818;2023-04-29T00:07:34;4.57;;;3.90;;
10920;SDS011;5513;50.580;8.818;2023-04-29T00:10:03;4.77;;;3.63;;
10920;SDS011;5513;50.580;8.818;2023-04-29T00:12:33;4.40;;;4.00;;
10920;SDS011;5513;50.580;8.818;2023-04-29T00:15:01;5.17;;;4.00;;
10920;SDS011;5513;50.580;8.818;2023-04-29T00:17:30;3.90;;;3.50;;
10920;SDS011;5513;50.580;8.818;2023-04-29T00:19:58;5.27;;;3.77;;
10920;SDS011;5513;50.580;8.818;2023-04-29T00:22:27;6.63;;;4.00;;
10920;SDS011;5513;50.580;8.818;2023-04-29T00:24:57;4.17;;;3.77;;
10920;SDS011;5513;50.580;8.818;2023-04-29T00:27:26;6.10;;;3.83;;
10920;SDS011;5513;50.580;8.818;2023-04-29T00:29:55;5.27;;;3.90;;
10920;SDS011;5513;50.580;8.818;2023-04-29T00:32:24;4.67;;;4.00;;
10920;SDS011;5513;50.580;8.818;2023-04-29T00:34:52;5.80;;;4.13;;
10920;SDS011;5513;50.580;8.818;2023-04-29T00:37:22;6.13;;;4.70;;
10920;SDS011;5513;50.580;8.818;2023-04-29T00:39:50;6.27;;;4.57;;
10920;SDS011;5513;50.580;8.818;2023-04-29T00:42:20;7.67;;;4.93;;
10920;SDS011;5513;50.580;8.818;2023-04-29T00:44:49;7.20;;;4.70;;
10920;SDS011;5513;50.580;8.818;2023-04-29T00:47:17;5.47;;;4.23;;
10920;SDS011;5513;50.580;8.818;2023-04-29T00:49:45;6.17;;;4.43;;
10920;SDS011;5513;50.580;8.818;2023-04-29T00:52:14;5.13;;;4.13;;
10920;SDS011;5513;50.580;8.818;2023-04-29T00:54:44;5.10;;;4.40;;
10920;SDS011;5513;50.580;8.818;2023-04-29T00:57:13;4.90;;;4.40;;
10920;SDS011;5513;50.580;8.818;2023-04-29T00:59:43;6.90;;;5.30;;
10920;SDS011;5513;50.580;8.818;2023-04-29T01:02:12;6.27;;;5.10;;
10920;SDS011;5513;50.580;8.818;2023-04-29T01:04:41;7.03;;;5.80;;
10920;SDS011;5513;50.580;8.818;2023-04-29T01:07:12;6.60;;;5.70;;
10920;SDS011;5513;50.580;8.818;2023-04-29T01:09:53;7.00;;;5.50;;
10920;SDS011;5513;50.580;8.818;2023-04-29T01:12:31;8.87;;;6.23;;
10920;SDS011;5513;50.580;8.818;2023-04-29T01:15:09;8.13;;;6.37;;
10920;SDS011;5513;50.580;8.818;2023-04-29T01:17:46;8.40;;;5.70;;
10920;SDS011;5513;50.580;8.818;2023-04-29T01:20:18;7.40;;;5.80;;
10920;SDS011;5513;50.580;8.818;2023-04-29T01:22:49;6.63;;;5.83;;
10920;SDS011;5513;50.580;8.818;2023-04-29T01:25:18;7.33;;;6.43;;
10920;SDS011;5513;50.580;8.818;2023-04-29T01:27:48;8.30;;;6.60;;
10920;SDS011;5513;50.580;8.818;2023-04-29T01:30:27;7.97;;;6.50;;
10920;SDS011;5513;50.580;8.818;2023-04-29T01:33:05;7.03;;;6.27;;
10920;SDS011;5513;50.580;8.818;2023-04-29T01:35:43;8.90;;;6.33;;
10920;SDS011;5513;50.580;8.818;2023-04-29T01:38:22;8.93;;;6.27;;
10920;SDS011;5513;50.580;8.818;2023-04-29T01:41:01;7.40;;;6.00;;
10920;SDS011;5513;50.580;8.818;2023-04-29T01:43:37;7.43;;;6.43;;
10920;SDS011;5513;50.580;8.818;2023-04-29T01:46:07;8.87;;;6.77;;
10920;SDS011;5513;50.580;8.818;2023-04-29T01:48:37;8.73;;;7.50;;
10920;SDS011;5513;50.580;8.818;2023-04-29T01:51:06;8.37;;;7.47;;
10920;SDS011;5513;50.580;8.818;2023-04-29T01:53:34;9.70;;;8.07;;
10920;SDS011;5513;50.580;8.818;2023-04-29T01:56:05;8.07;;;7.27;;
10920;SDS011;5513;50.580;8.818;2023-04-29T01:58:33;8.50;;;7.60;;
10920;SDS011;5513;50.580;8.818;2023-04-29T02:01:01;8.90;;;7.83;;
10920;SDS011;5513;50.580;8.818;2023-04-29T02:03:30;8.27;;;7.37;;
10920;SDS011;5513;50.580;8.818;2023-04-29T02:05:58;9.03;;;7.90;;
10920;SDS011;5513;50.580;8.818;2023-04-29T02:08:26;9.60;;;8.20;;
10920;SDS011;5513;50.580;8.818;2023-04-29T02:10:55;10.90;;;7.87;;
10920;SDS011;5513;50.580;8.818;2023-04-29T02:13:26;8.63;;;7.73;;
10920;SDS011;5513;50.580;8.818;2023-04-29T02:15:55;8.80;;;7.27;;
10920;SDS011;5513;50.580;8.818;2023-04-29T02:18:23;9.13;;;7.70;;
10920;SDS011;5513;50.580;8.818;2023-04-29T02:20:51;9.27;;;7.90;;
10920;SDS011;5513;50.580;8.818;2023-04-29T02:23:27;11.40;;;8.30;;
10920;SDS011;5513;50.580;8.818;2023-04-29T02:25:57;13.53;;;8.77;;
10920;SDS011;5513;50.580;8.818;2023-04-29T02:28:26;9.20;;;7.90;;
10920;SDS011;5513;50.580;8.818;2023-04-29T02:30:55;9.67;;;8.40;;
10920;SDS011;5513;50.580;8.818;2023-04-29T02:33:23;9.00;;;8.10;;
10920;SDS011;5513;50.580;8.818;2023-04-29T02:35:52;11.13;;;9.47;;
10920;SDS011;5513;50.580;8.818;2023-04-29T02:38:21;10.33;;;9.00;;
10920;SDS011;5513;50.580;8.818;2023-04-29T02:40:49;12.63;;;10.03;;
10920;SDS011;5513;50.580;8.818;2023-04-29T02:43:17;11.27;;;9.27;;
10920;SDS011;5513;50.580;8.818;2023-04-29T02:45:47;12.13;;;9.03;;
10920;SDS011;5513;50.580;8.818;2023-04-29T02:48:15;11.23;;;8.90;;
10920;SDS011;5513;50.580;8.818;2023-04-29T02:50:44;13.27;;;9.27;;
10920;SDS011;5513;50.580;8.818;2023-04-29T02:53:12;11.87;;;9.67;;
10920;SDS011;5513;50.580;8.818;2023-04-29T02:55:40;11.83;;;9.97;;
10920;SDS011;5513;50.580;8.818;2023-04-29T02:58:08;12.83;;;10.97;;
